sensor_id;sensor_type;location;lat;lon;timestamp;P1;durP1;ratioP1;P2;durP2;ratioP2
4748;SDS011;2388;53.582;9.962;2022-12-18T00:01:30;12.45;;;6.97;;
4748;SDS011;2388;53.582;9.962;2022-12-18T00:03:58;8.45;;;6.60;;
4748;SDS011;2388;53.582;9.962;2022-12-18T00:06:25;10.20;;;6.45;;
4748;SDS011;2388;53.582;9.962;2022-12-18T00:08:53;13.93;;;6.57;;
4748;SDS011;2388;53.582;9.962;2022-12-18T00:11:21;9.70;;;6.05;;
4748;SDS011;2388;53.582;9.962;2022-12-18T00:13:49;9.77;;;6.38;;
4748;SDS011;2388;53.582;9.962;2022-12-18T00:16:16;8.60;;;5.20;;
4748;SDS011;2388;53.582;9.962;2022-12-18T00:18:45;10.95;;;6.35;;
4748;SDS011;2388;53.582;9.962;2022-12-18T00:21:12;9.80;;;6.30;;
4748;SDS011;2388;53.582;9.962;2022-12-18T00:23:39;10.57;;;7.35;;
4748;SDS011;2388;53.582;9.962;2022-12-18T00:26:07;7.35;;;6.03;;
4748;SDS011;2388;53.582;9.962;2022-12-18T00:28:38;9.38;;;5.40;;
4748;SDS011;2388;53.582;9.962;2022-12-18T00:31:04;11.67;;;6.23;;
4748;SDS011;2388;53.582;9.962;2022-12-18T00:33:32;10.00;;;6.70;;
4748;SDS011;2388;53.582;9.962;2022-12-18T00:36:02;7.22;;;6.25;;
4748;SDS011;2388;53.582;9.962;2022-12-18T00:38:32;11.10;;;6.43;;
4748;SDS011;2388;53.582;9.962;2022-12-18T00:40:58;10.82;;;6.45;;
4748;SDS011;2388;53.582;9.962;2022-12-18T00:43:23;8.07;;;6.83;;
4748;SDS011;2388;53.582;9.962;2022-12-18T00:45:49;8.20;;;6.10;;
4748;SDS011;2388;53.582;9.962;2022-12-18T00:48:14;9.47;;;6.83;;
4748;SDS011;2388;53.582;9.962;2022-12-18T00:50:40;8.67;;;6.83;;
4748;SDS011;2388;53.582;9.962;2022-12-18T00:53:06;10.17;;;5.90;;
4748;SDS011;2388;53.582;9.962;2022-12-18T00:55:31;9.67;;;6.90;;
4748;SDS011;2388;53.582;9.962;2022-12-18T00:57:57;13.53;;;6.50;;
4748;SDS011;2388;53.582;9.962;2022-12-18T01:00:22;11.80;;;6.20;;
4748;SDS011;2388;53.582;9.962;2022-12-18T01:02:48;10.80;;;5.77;;
4748;SDS011;2388;53.582;9.962;2022-12-18T01:05:14;8.40;;;6.30;;
4748;SDS011;2388;53.582;9.962;2022-12-18T01:07:39;10.17;;;6.30;;
4748;SDS011;2388;53.582;9.962;2022-12-18T01:10:05;9.23;;;5.67;;
4748;SDS011;2388;53.582;9.962;2022-12-18T01:12:32;10.02;;;5.60;;
4748;SDS011;2388;53.582;9.962;2022-12-18T01:14:58;9.48;;;6.18;;
4748;SDS011;2388;53.582;9.962;2022-12-18T01:17:24;8.20;;;5.70;;
4748;SDS011;2388;53.582;9.962;2022-12-18T01:19:49;10.90;;;6.20;;
4748;SDS011;2388;53.582;9.962;2022-12-18T01:22:15;9.00;;;6.03;;
4748;SDS011;2388;53.582;9.962;2022-12-18T01:24:40;9.90;;;5.80;;
4748;SDS011;2388;53.582;9.962;2022-12-18T01:27:06;6.97;;;5.57;;
4748;SDS011;2388;53.582;9.962;2022-12-18T01:29:32;7.35;;;5.60;;
4748;SDS011;2388;53.582;9.962;2022-12-18T01:31:57;10.23;;;6.07;;
4748;SDS011;2388;53.582;9.962;2022-12-18T01:34:23;6.33;;;5.13;;
4748;SDS011;2388;53.582;9.962;2022-12-18T01:36:49;7.53;;;5.50;;
4748;SDS011;2388;53.582;9.962;2022-12-18T01:39:17;9.77;;;5.80;;
4748;SDS011;2388;53.582;9.962;2022-12-18T01:41:43;8.18;;;5.70;;
4748;SDS011;2388;53.582;9.962;2022-12-18T01:50:15;12.43;;;6.38;;
4748;SDS011;2388;53.582;9.962;2022-12-18T01:52:47;9.13;;;5.90;;
4748;SDS011;2388;53.582;9.962;2022-12-18T01:55:17;10.15;;;5.80;;
4748;SDS011;2388;53.582;9.962;2022-12-18T01:57:45;6.18;;;5.47;;
4748;SDS011;2388;53.582;9.962;2022-12-18T02:00:18;11.02;;;5.60;;
4748;SDS011;2388;53.582;9.962;2022-12-18T02:02:45;9.18;;;5.50;;
4748;SDS011;2388;53.582;9.962;2022-12-18T02:05:14;7.10;;;5.55;;
4748;SDS011;2388;53.582;9.962;2022-12-18T02:10:28;11.10;;;6.30;;
4748;SDS011;2388;53.582;9.962;2022-12-18T02:13:02;8.32;;;5.47;;
4748;SDS011;2388;53.582;9.962;2022-12-18T02:18:28;8.20;;;5.60;;
4748;SDS011;2388;53.582;9.962;2022-12-18T02:23:52;9.85;;;5.68;;
4748;SDS011;2388;53.582;9.962;2022-12-18T02:26:43;7.90;;;5.72;;
4748;SDS011;2388;53.582;9.962;2022-12-18T02:29:17;9.32;;;6.50;;
4748;SDS011;2388;53.582;9.962;2022-12-18T02:31:50;10.40;;;6.30;;
4748;SDS011;2388;53.582;9.962;2022-12-18T02:34:18;12.82;;;5.85;;
4748;SDS011;2388;53.582;9.962;2022-12-18T02:36:46;9.95;;;6.07;;
4748;SDS011;2388;53.582;9.962;2022-12-18T02:39:14;8.32;;;5.40;;
4748;SDS011;2388;53.582;9.962;2022-12-18T02:41:42;6.35;;;5.32;;
4748;SDS011;2388;53.582;9.962;2022-12-18T02:44:09;8.43;;;6.20;;
4748;SDS011;2388;53.582;9.962;2022-12-18T02:46:38;7.03;;;5.22;;
4748;SDS011;2388;53.582;9.962;2022-12-18T02:51:53;7.40;;;5.53;;
4748;SDS011;2388;53.582;9.962;2022-12-18T03:00:14;7.55;;;5.60;;
4748;SDS011;2388;53.582;9.962;2022-12-18T03:02:54;7.63;;;5.35;;
4748;SDS011;2388;53.582;9.962;2022-12-18T03:05:43;11.90;;;5.93;;
4748;SDS011;2388;53.582;9.962;2022-12-18T03:08:10;8.98;;;5.65;;
4748;SDS011;2388;53.582;9.962;2022-12-18T03:10:45;5.63;;;5.10;;
4748;SDS011;2388;53.582;9.962;2022-12-18T03:13:23;7.22;;;5.65;;
4748;SDS011;2388;53.582;9.962;2022-12-18T03:16:06;6.05;;;4.70;;
4748;SDS011;2388;53.582;9.962;2022-12-18T03:21:04;10.23;;;5.60;;
4748;SDS011;2388;53.582;9.962;2022-12-18T03:23:39;8.48;;;5.88;;
4748;SDS011;2388;53.582;9.962;2022-12-18T03:26:09;7.70;;;4.93;;
4748;SDS011;2388;53.582;9.962;2022-12-18T03:28:38;9.45;;;4.47;;
4748;SDS011;2388;53.582;9.962;2022-12-18T03:31:09;6.72;;;4.85;;
4748;SDS011;2388;53.582;9.962;2022-12-18T03:33:38;8.57;;;5.00;;
4748;SDS011;2388;53.582;9.962;2022-12-18T03:36:17;5.90;;;5.30;;
4748;SDS011;2388;53.582;9.962;2022-12-18T03:38:43;8.80;;;5.07;;
4748;SDS011;2388;53.582;9.962;2022-12-18T03:41:15;7.57;;;5.10;;
4748;SDS011;2388;53.582;9.962;2022-12-18T03:46:41;5.85;;;4.88;;
4748;SDS011;2388;53.582;9.962;2022-12-18T03:52:09;8.30;;;5.13;;
4748;SDS011;2388;53.582;9.962;2022-12-18T03:54:48;5.13;;;4.55;;
4748;SDS011;2388;53.582;9.962;2022-12-18T03:57:17;13.73;;;5.70;;
4748;SDS011;2388;53.582;9.962;2022-12-18T03:59:46;9.00;;;5.85;;
4748;SDS011;2388;53.582;9.962;2022-12-18T04:02:15;6.07;;;4.80;;
4748;SDS011;2388;53.582;9.962;2022-12-18T04:04:42;7.57;;;4.57;;
4748;SDS011;2388;53.582;9.962;2022-12-18T04:07:09;8.15;;;4.82;;
4748;SDS011;2388;53.582;9.962;2022-12-18T04:09:36;6.93;;;5.30;;
4748;SDS011;2388;53.582;9.962;2022-12-18T04:12:05;9.00;;;5.25;;
4748;SDS011;2388;53.582;9.962;2022-12-18T04:14:30;4.40;;;4.00;;
4748;SDS011;2388;53.582;9.962;2022-12-18T04:17:00;7.95;;;5.20;;
4748;SDS011;2388;53.582;9.962;2022-12-18T04:19:26;7.60;;;5.17;;
4748;SDS011;2388;53.582;9.962;2022-12-18T04:21:51;9.10;;;5.50;;
4748;SDS011;2388;53.582;9.962;2022-12-18T04:24:17;8.40;;;5.43;;
4748;SDS011;2388;53.582;9.962;2022-12-18T04:26:42;9.10;;;5.67;;
4748;SDS011;2388;53.582;9.962;2022-12-18T04:29:08;6.20;;;5.37;;
4748;SDS011;2388;53.582;9.962;2022-12-18T04:31:33;7.53;;;4.97;;
4748;SDS011;2388;53.582;9.962;2022-12-18T04:33:59;8.77;;;5.00;;
4748;SDS011;2388;53.582;9.962;2022-12-18T04:36:24;13.70;;;5.10;;
4748;SDS011;2388;53.582;9.962;2022-12-18T04:38:52;9.07;;;5.57;;
4748;SDS011;2388;53.582;9.962;2022-12-18T04:41:17;7.90;;;5.17;;
4748;SDS011;2388;53.582;9.962;2022-12-18T04:43:43;7.07;;;4.70;;
4748;SDS011;2388;53.582;9.962;2022-12-18T04:46:09;6.80;;;5.40;;
4748;SDS011;2388;53.582;9.962;2022-12-18T04:48:34;7.07;;;5.30;;
4748;SDS011;2388;53.582;9.962;2022-12-18T04:51:01;6.30;;;5.00;;
4748;SDS011;2388;53.582;9.962;2022-12-18T04:53:27;7.17;;;4.90;;
4748;SDS011;2388;53.582;9.962;2022-12-18T04:56:06;7.10;;;5.10;;
4748;SDS011;2388;53.582;9.962;2022-12-18T04:58:33;7.30;;;5.00;;
4748;SDS011;2388;53.582;9.962;2022-12-18T05:00:59;6.22;;;4.80;;
4748;SDS011;2388;53.582;9.962;2022-12-18T05:03:26;6.30;;;5.55;;
4748;SDS011;2388;53.582;9.962;2022-12-18T05:05:51;7.90;;;5.20;;
4748;SDS011;2388;53.582;9.962;2022-12-18T05:08:17;5.43;;;4.83;;
4748;SDS011;2388;53.582;9.962;2022-12-18T05:10:43;5.57;;;4.80;;
4748;SDS011;2388;53.582;9.962;2022-12-18T05:13:09;8.20;;;5.30;;
4748;SDS011;2388;53.582;9.962;2022-12-18T05:15:34;10.70;;;5.30;;
4748;SDS011;2388;53.582;9.962;2022-12-18T05:18:00;6.10;;;4.57;;
4748;SDS011;2388;53.582;9.962;2022-12-18T05:20:26;6.70;;;4.40;;
4748;SDS011;2388;53.582;9.962;2022-12-18T05:22:52;6.65;;;4.30;;
4748;SDS011;2388;53.582;9.962;2022-12-18T05:25:19;8.43;;;5.30;;
4748;SDS011;2388;53.582;9.962;2022-12-18T05:27:45;7.80;;;4.65;;
4748;SDS011;2388;53.582;9.962;2022-12-18T05:30:11;11.80;;;5.00;;
4748;SDS011;2388;53.582;9.962;2022-12-18T05:32:37;8.45;;;4.95;;
4748;SDS011;2388;53.582;9.962;2022-12-18T05:35:03;5.37;;;4.87;;
4748;SDS011;2388;53.582;9.962;2022-12-18T05:37:29;7.70;;;5.35;;
4748;SDS011;2388;53.582;9.962;2022-12-18T05:39:55;8.50;;;5.00;;
4748;SDS011;2388;53.582;9.962;2022-12-18T05:42:20;5.80;;;5.03;;
4748;SDS011;2388;53.582;9.962;2022-12-18T05:44:46;5.50;;;4.80;;
4748;SDS011;2388;53.582;9.962;2022-12-18T05:47:12;5.97;;;4.40;;
4748;SDS011;2388;53.582;9.962;2022-12-18T05:49:37;5.50;;;4.67;;
4748;SDS011;2388;53.582;9.962;2022-12-18T05:52:03;8.00;;;5.27;;
4748;SDS011;2388;53.582;9.962;2022-12-18T05:54:29;7.83;;;5.30;;
4748;SDS011;2388;53.582;9.962;2022-12-18T05:56:54;9.20;;;5.20;;
4748;SDS011;2388;53.582;9.962;2022-12-18T05:59:20;8.47;;;5.10;;
4748;SDS011;2388;53.582;9.962;2022-12-18T06:01:45;8.60;;;5.47;;
4748;SDS011;2388;53.582;9.962;2022-12-18T06:04:11;4.87;;;4.23;;
4748;SDS011;2388;53.582;9.962;2022-12-18T06:06:37;6.13;;;4.05;;
4748;SDS011;2388;53.582;9.962;2022-12-18T06:09:03;8.77;;;5.43;;
4748;SDS011;2388;53.582;9.962;2022-12-18T06:11:33;8.50;;;5.05;;
4748;SDS011;2388;53.582;9.962;2022-12-18T06:13:59;5.30;;;4.80;;
4748;SDS011;2388;53.582;9.962;2022-12-18T06:16:26;6.13;;;4.82;;
4748;SDS011;2388;53.582;9.962;2022-12-18T06:18:52;7.65;;;4.97;;
4748;SDS011;2388;53.582;9.962;2022-12-18T06:21:20;6.70;;;4.60;;
4748;SDS011;2388;53.582;9.962;2022-12-18T06:23:46;7.63;;;4.83;;
4748;SDS011;2388;53.582;9.962;2022-12-18T06:26:11;6.03;;;5.07;;
4748;SDS011;2388;53.582;9.962;2022-12-18T06:28:38;7.05;;;5.22;;
4748;SDS011;2388;53.582;9.962;2022-12-18T06:31:03;10.00;;;4.93;;
4748;SDS011;2388;53.582;9.962;2022-12-18T06:33:29;9.60;;;5.50;;
4748;SDS011;2388;53.582;9.962;2022-12-18T06:36:02;9.00;;;4.80;;
4748;SDS011;2388;53.582;9.962;2022-12-18T06:38:30;7.00;;;5.00;;
4748;SDS011;2388;53.582;9.962;2022-12-18T06:40:57;5.65;;;4.70;;
4748;SDS011;2388;53.582;9.962;2022-12-18T06:43:22;8.60;;;5.40;;
4748;SDS011;2388;53.582;9.962;2022-12-18T06:45:48;7.30;;;5.20;;
4748;SDS011;2388;53.582;9.962;2022-12-18T06:48:17;6.10;;;4.20;;
4748;SDS011;2388;53.582;9.962;2022-12-18T06:50:45;7.45;;;5.28;;
4748;SDS011;2388;53.582;9.962;2022-12-18T06:53:11;6.90;;;4.87;;
4748;SDS011;2388;53.582;9.962;2022-12-18T06:55:37;7.07;;;5.13;;
4748;SDS011;2388;53.582;9.962;2022-12-18T06:58:02;6.77;;;4.70;;
4748;SDS011;2388;53.582;9.962;2022-12-18T07:00:28;6.80;;;4.43;;
4748;SDS011;2388;53.582;9.962;2022-12-18T07:02:54;6.30;;;4.80;;
4748;SDS011;2388;53.582;9.962;2022-12-18T07:05:19;8.67;;;5.10;;
4748;SDS011;2388;53.582;9.962;2022-12-18T07:07:44;9.20;;;5.93;;
4748;SDS011;2388;53.582;9.962;2022-12-18T07:10:10;6.20;;;4.50;;
4748;SDS011;2388;53.582;9.962;2022-12-18T07:12:36;6.63;;;5.07;;
4748;SDS011;2388;53.582;9.962;2022-12-18T07:15:01;8.63;;;4.73;;
4748;SDS011;2388;53.582;9.962;2022-12-18T07:17:27;6.33;;;4.97;;
4748;SDS011;2388;53.582;9.962;2022-12-18T07:19:53;6.70;;;5.05;;
4748;SDS011;2388;53.582;9.962;2022-12-18T07:22:18;6.70;;;4.37;;
4748;SDS011;2388;53.582;9.962;2022-12-18T07:24:44;6.93;;;5.90;;
4748;SDS011;2388;53.582;9.962;2022-12-18T07:27:09;7.20;;;5.10;;
4748;SDS011;2388;53.582;9.962;2022-12-18T07:29:35;5.40;;;4.93;;
4748;SDS011;2388;53.582;9.962;2022-12-18T07:32:00;6.60;;;4.43;;
4748;SDS011;2388;53.582;9.962;2022-12-18T07:34:26;5.90;;;4.77;;
4748;SDS011;2388;53.582;9.962;2022-12-18T07:36:51;12.77;;;5.73;;
4748;SDS011;2388;53.582;9.962;2022-12-18T07:39:17;7.90;;;4.50;;
4748;SDS011;2388;53.582;9.962;2022-12-18T07:41:42;8.60;;;5.63;;
4748;SDS011;2388;53.582;9.962;2022-12-18T07:44:11;5.10;;;4.35;;
4748;SDS011;2388;53.582;9.962;2022-12-18T07:46:37;7.35;;;4.53;;
4748;SDS011;2388;53.582;9.962;2022-12-18T07:49:03;7.70;;;5.40;;
4748;SDS011;2388;53.582;9.962;2022-12-18T07:51:29;5.75;;;4.50;;
4748;SDS011;2388;53.582;9.962;2022-12-18T07:53:54;5.77;;;5.10;;
4748;SDS011;2388;53.582;9.962;2022-12-18T07:56:21;6.15;;;5.00;;
4748;SDS011;2388;53.582;9.962;2022-12-18T07:58:46;5.30;;;4.57;;
4748;SDS011;2388;53.582;9.962;2022-12-18T08:01:12;6.40;;;5.20;;
4748;SDS011;2388;53.582;9.962;2022-12-18T08:03:38;6.60;;;4.87;;
4748;SDS011;2388;53.582;9.962;2022-12-18T08:06:06;6.05;;;5.25;;
4748;SDS011;2388;53.582;9.962;2022-12-18T08:08:33;6.15;;;4.40;;
4748;SDS011;2388;53.582;9.962;2022-12-18T08:11:00;5.65;;;4.68;;
4748;SDS011;2388;53.582;9.962;2022-12-18T08:13:26;6.25;;;5.07;;
4748;SDS011;2388;53.582;9.962;2022-12-18T08:15:59;8.27;;;4.70;;
4748;SDS011;2388;53.582;9.962;2022-12-18T08:18:33;7.45;;;5.07;;
4748;SDS011;2388;53.582;9.962;2022-12-18T08:21:09;9.15;;;5.55;;
4748;SDS011;2388;53.582;9.962;2022-12-18T08:23:42;12.15;;;5.35;;
4748;SDS011;2388;53.582;9.962;2022-12-18T08:26:07;7.87;;;5.27;;
4748;SDS011;2388;53.582;9.962;2022-12-18T08:28:33;7.10;;;4.80;;
4748;SDS011;2388;53.582;9.962;2022-12-18T08:30:59;5.85;;;5.10;;
4748;SDS011;2388;53.582;9.962;2022-12-18T08:33:25;5.60;;;4.73;;
4748;SDS011;2388;53.582;9.962;2022-12-18T08:35:51;6.43;;;5.43;;
4748;SDS011;2388;53.582;9.962;2022-12-18T08:38:17;7.28;;;5.32;;
4748;SDS011;2388;53.582;9.962;2022-12-18T08:40:42;9.07;;;6.03;;
4748;SDS011;2388;53.582;9.962;2022-12-18T08:43:09;7.40;;;5.50;;
4748;SDS011;2388;53.582;9.962;2022-12-18T08:45:54;5.50;;;4.90;;
4748;SDS011;2388;53.582;9.962;2022-12-18T08:48:19;13.63;;;5.50;;
4748;SDS011;2388;53.582;9.962;2022-12-18T08:50:55;4.97;;;4.43;;
4748;SDS011;2388;53.582;9.962;2022-12-18T08:53:22;11.18;;;5.00;;
4748;SDS011;2388;53.582;9.962;2022-12-18T08:55:51;9.02;;;4.97;;
4748;SDS011;2388;53.582;9.962;2022-12-18T08:58:17;5.50;;;4.87;;
4748;SDS011;2388;53.582;9.962;2022-12-18T09:00:43;8.13;;;5.60;;
4748;SDS011;2388;53.582;9.962;2022-12-18T09:03:11;8.13;;;5.60;;
4748;SDS011;2388;53.582;9.962;2022-12-18T09:05:37;9.02;;;5.38;;
4748;SDS011;2388;53.582;9.962;2022-12-18T09:08:03;7.60;;;5.20;;
4748;SDS011;2388;53.582;9.962;2022-12-18T09:10:28;6.87;;;4.80;;
4748;SDS011;2388;53.582;9.962;2022-12-18T09:12:54;7.20;;;5.20;;
4748;SDS011;2388;53.582;9.962;2022-12-18T09:15:21;8.45;;;4.65;;
4748;SDS011;2388;53.582;9.962;2022-12-18T09:17:46;5.73;;;5.23;;
4748;SDS011;2388;53.582;9.962;2022-12-18T09:20:13;7.28;;;5.45;;
4748;SDS011;2388;53.582;9.962;2022-12-18T09:22:38;9.87;;;5.60;;
4748;SDS011;2388;53.582;9.962;2022-12-18T09:25:04;5.33;;;4.80;;
4748;SDS011;2388;53.582;9.962;2022-12-18T09:27:32;8.20;;;5.80;;
4748;SDS011;2388;53.582;9.962;2022-12-18T09:29:58;7.70;;;5.30;;
4748;SDS011;2388;53.582;9.962;2022-12-18T09:32:23;18.17;;;11.57;;
4748;SDS011;2388;53.582;9.962;2022-12-18T09:34:49;10.30;;;6.40;;
4748;SDS011;2388;53.582;9.962;2022-12-18T09:37:14;18.60;;;11.00;;
4748;SDS011;2388;53.582;9.962;2022-12-18T09:39:40;7.93;;;5.80;;
4748;SDS011;2388;53.582;9.962;2022-12-18T09:42:05;6.77;;;5.63;;
4748;SDS011;2388;53.582;9.962;2022-12-18T09:44:41;7.13;;;5.82;;
4748;SDS011;2388;53.582;9.962;2022-12-18T09:49:46;15.02;;;7.43;;
4748;SDS011;2388;53.582;9.962;2022-12-18T09:52:16;10.90;;;6.65;;
4748;SDS011;2388;53.582;9.962;2022-12-18T09:54:50;6.68;;;5.15;;
4748;SDS011;2388;53.582;9.962;2022-12-18T09:57:37;7.65;;;5.07;;
4748;SDS011;2388;53.582;9.962;2022-12-18T10:00:20;14.52;;;8.70;;
4748;SDS011;2388;53.582;9.962;2022-12-18T10:02:47;10.75;;;5.90;;
4748;SDS011;2388;53.582;9.962;2022-12-18T10:05:17;7.03;;;5.30;;
4748;SDS011;2388;53.582;9.962;2022-12-18T10:07:53;8.77;;;5.85;;
4748;SDS011;2388;53.582;9.962;2022-12-18T10:10:37;8.20;;;5.93;;
4748;SDS011;2388;53.582;9.962;2022-12-18T10:13:21;8.93;;;5.75;;
4748;SDS011;2388;53.582;9.962;2022-12-18T10:15:54;7.53;;;5.32;;
4748;SDS011;2388;53.582;9.962;2022-12-18T10:21:21;8.18;;;6.03;;
4748;SDS011;2388;53.582;9.962;2022-12-18T10:24:04;8.32;;;5.15;;
4748;SDS011;2388;53.582;9.962;2022-12-18T10:26:40;7.45;;;5.45;;
4748;SDS011;2388;53.582;9.962;2022-12-18T10:29:11;6.65;;;4.88;;
4748;SDS011;2388;53.582;9.962;2022-12-18T10:31:38;7.05;;;5.07;;
4748;SDS011;2388;53.582;9.962;2022-12-18T10:34:04;9.00;;;5.60;;
4748;SDS011;2388;53.582;9.962;2022-12-18T10:36:35;12.13;;;5.82;;
4748;SDS011;2388;53.582;9.962;2022-12-18T10:41:50;10.60;;;5.80;;
4748;SDS011;2388;53.582;9.962;2022-12-18T10:44:16;7.20;;;5.13;;
4748;SDS011;2388;53.582;9.962;2022-12-18T10:46:49;7.43;;;5.25;;
4748;SDS011;2388;53.582;9.962;2022-12-18T10:49:22;7.50;;;5.30;;
4748;SDS011;2388;53.582;9.962;2022-12-18T10:51:51;6.78;;;5.20;;
4748;SDS011;2388;53.582;9.962;2022-12-18T10:54:30;9.15;;;6.32;;
4748;SDS011;2388;53.582;9.962;2022-12-18T10:57:17;8.57;;;5.47;;
4748;SDS011;2388;53.582;9.962;2022-12-18T10:59:53;8.32;;;5.80;;
4748;SDS011;2388;53.582;9.962;2022-12-18T11:02:27;7.35;;;5.20;;
4748;SDS011;2388;53.582;9.962;2022-12-18T11:05:03;5.90;;;4.95;;
4748;SDS011;2388;53.582;9.962;2022-12-18T11:07:54;13.77;;;5.72;;
4748;SDS011;2388;53.582;9.962;2022-12-18T11:10:22;8.32;;;5.90;;
4748;SDS011;2388;53.582;9.962;2022-12-18T11:12:51;9.65;;;5.80;;
4748;SDS011;2388;53.582;9.962;2022-12-18T11:15:19;10.00;;;5.90;;
4748;SDS011;2388;53.582;9.962;2022-12-18T11:17:55;11.07;;;6.03;;
4748;SDS011;2388;53.582;9.962;2022-12-18T11:20:27;11.00;;;6.00;;
4748;SDS011;2388;53.582;9.962;2022-12-18T11:22:57;7.40;;;5.70;;
4748;SDS011;2388;53.582;9.962;2022-12-18T11:25:28;5.85;;;5.18;;
4748;SDS011;2388;53.582;9.962;2022-12-18T11:27:56;8.65;;;6.10;;
4748;SDS011;2388;53.582;9.962;2022-12-18T11:30:27;8.40;;;7.22;;
4748;SDS011;2388;53.582;9.962;2022-12-18T11:35:47;10.70;;;6.40;;
4748;SDS011;2388;53.582;9.962;2022-12-18T11:40:56;27.58;;;15.63;;
4748;SDS011;2388;53.582;9.962;2022-12-18T11:43:34;11.50;;;7.97;;
4748;SDS011;2388;53.582;9.962;2022-12-18T11:49:06;12.82;;;6.75;;
4748;SDS011;2388;53.582;9.962;2022-12-18T11:51:48;11.20;;;6.47;;
4748;SDS011;2388;53.582;9.962;2022-12-18T11:54:18;9.80;;;7.50;;
4748;SDS011;2388;53.582;9.962;2022-12-18T11:56:46;10.17;;;6.60;;
4748;SDS011;2388;53.582;9.962;2022-12-18T11:59:20;12.75;;;7.90;;
4748;SDS011;2388;53.582;9.962;2022-12-18T12:04:56;10.65;;;7.05;;
4748;SDS011;2388;53.582;9.962;2022-12-18T12:12:58;14.50;;;7.93;;
4748;SDS011;2388;53.582;9.962;2022-12-18T12:18:40;13.57;;;7.47;;
4748;SDS011;2388;53.582;9.962;2022-12-18T12:24:17;12.93;;;8.15;;
4748;SDS011;2388;53.582;9.962;2022-12-18T12:27:22;12.85;;;7.57;;
4748;SDS011;2388;53.582;9.962;2022-12-18T12:32:30;9.82;;;6.82;;
4748;SDS011;2388;53.582;9.962;2022-12-18T12:40:45;11.35;;;7.97;;
4748;SDS011;2388;53.582;9.962;2022-12-18T12:46:04;10.15;;;7.30;;
4748;SDS011;2388;53.582;9.962;2022-12-18T12:51:13;12.55;;;7.20;;
4748;SDS011;2388;53.582;9.962;2022-12-18T12:53:46;11.25;;;6.93;;
4748;SDS011;2388;53.582;9.962;2022-12-18T12:56:13;16.58;;;8.07;;
4748;SDS011;2388;53.582;9.962;2022-12-18T12:59:02;8.77;;;7.00;;
4748;SDS011;2388;53.582;9.962;2022-12-18T13:01:48;10.88;;;7.70;;
4748;SDS011;2388;53.582;9.962;2022-12-18T13:04:33;8.30;;;7.00;;
4748;SDS011;2388;53.582;9.962;2022-12-18T13:07:14;14.27;;;7.97;;
4748;SDS011;2388;53.582;9.962;2022-12-18T13:12:51;12.50;;;7.38;;
4748;SDS011;2388;53.582;9.962;2022-12-18T13:15:24;13.95;;;7.68;;
4748;SDS011;2388;53.582;9.962;2022-12-18T13:18:02;10.60;;;6.97;;
4748;SDS011;2388;53.582;9.962;2022-12-18T13:20:34;15.70;;;8.68;;
4748;SDS011;2388;53.582;9.962;2022-12-18T13:23:18;15.55;;;8.63;;
4748;SDS011;2388;53.582;9.962;2022-12-18T13:25:52;13.38;;;7.78;;
4748;SDS011;2388;53.582;9.962;2022-12-18T13:31:11;11.90;;;7.80;;
4748;SDS011;2388;53.582;9.962;2022-12-18T13:34:30;12.05;;;8.23;;
4748;SDS011;2388;53.582;9.962;2022-12-18T13:36:50;17.80;;;9.63;;
4748;SDS011;2388;53.582;9.962;2022-12-18T13:41:54;14.40;;;8.48;;
4748;SDS011;2388;53.582;9.962;2022-12-18T13:44:55;13.52;;;8.60;;
4748;SDS011;2388;53.582;9.962;2022-12-18T13:47:26;17.47;;;9.63;;
4748;SDS011;2388;53.582;9.962;2022-12-18T13:49:57;13.75;;;7.75;;
4748;SDS011;2388;53.582;9.962;2022-12-18T13:52:26;21.10;;;9.63;;
4748;SDS011;2388;53.582;9.962;2022-12-18T13:54:58;24.55;;;11.68;;
4748;SDS011;2388;53.582;9.962;2022-12-18T13:59:55;20.63;;;9.95;;
4748;SDS011;2388;53.582;9.962;2022-12-18T14:02:25;18.77;;;9.38;;
4748;SDS011;2388;53.582;9.962;2022-12-18T14:04:53;14.57;;;9.50;;
4748;SDS011;2388;53.582;9.962;2022-12-18T14:07:25;20.75;;;9.88;;
4748;SDS011;2388;53.582;9.962;2022-12-18T14:09:56;16.25;;;8.73;;
4748;SDS011;2388;53.582;9.962;2022-12-18T14:12:26;15.70;;;8.70;;
4748;SDS011;2388;53.582;9.962;2022-12-18T14:18:19;15.77;;;9.27;;
4748;SDS011;2388;53.582;9.962;2022-12-18T14:21:04;21.13;;;9.65;;
4748;SDS011;2388;53.582;9.962;2022-12-18T14:23:34;16.27;;;9.65;;
4748;SDS011;2388;53.582;9.962;2022-12-18T14:26:21;18.42;;;9.45;;
4748;SDS011;2388;53.582;9.962;2022-12-18T14:28:54;19.20;;;10.00;;
4748;SDS011;2388;53.582;9.962;2022-12-18T14:31:24;16.45;;;9.45;;
4748;SDS011;2388;53.582;9.962;2022-12-18T14:33:52;19.55;;;9.65;;
4748;SDS011;2388;53.582;9.962;2022-12-18T14:36:22;19.63;;;10.90;;
4748;SDS011;2388;53.582;9.962;2022-12-18T14:38:53;20.10;;;10.90;;
4748;SDS011;2388;53.582;9.962;2022-12-18T14:41:20;18.65;;;10.20;;
4748;SDS011;2388;53.582;9.962;2022-12-18T14:43:47;20.15;;;10.52;;
4748;SDS011;2388;53.582;9.962;2022-12-18T14:46:28;22.15;;;10.20;;
4748;SDS011;2388;53.582;9.962;2022-12-18T14:48:57;22.55;;;10.30;;
4748;SDS011;2388;53.582;9.962;2022-12-18T14:51:25;20.67;;;10.75;;
4748;SDS011;2388;53.582;9.962;2022-12-18T14:53:55;18.85;;;10.60;;
4748;SDS011;2388;53.582;9.962;2022-12-18T14:56:24;22.80;;;10.07;;
4748;SDS011;2388;53.582;9.962;2022-12-18T14:59:24;21.15;;;10.57;;
4748;SDS011;2388;53.582;9.962;2022-12-18T15:04:53;20.27;;;10.98;;
4748;SDS011;2388;53.582;9.962;2022-12-18T15:07:39;17.05;;;9.60;;
4748;SDS011;2388;53.582;9.962;2022-12-18T15:10:10;22.50;;;11.32;;
4748;SDS011;2388;53.582;9.962;2022-12-18T15:18:03;21.85;;;11.05;;
4748;SDS011;2388;53.582;9.962;2022-12-18T15:20:33;24.45;;;11.35;;
4748;SDS011;2388;53.582;9.962;2022-12-18T15:23:20;23.30;;;12.50;;
4748;SDS011;2388;53.582;9.962;2022-12-18T15:25:59;24.35;;;11.50;;
4748;SDS011;2388;53.582;9.962;2022-12-18T15:28:34;21.88;;;11.50;;
4748;SDS011;2388;53.582;9.962;2022-12-18T15:33:38;22.35;;;11.52;;
4748;SDS011;2388;53.582;9.962;2022-12-18T15:36:08;31.52;;;10.68;;
4748;SDS011;2388;53.582;9.962;2022-12-18T15:38:38;26.08;;;13.85;;
4748;SDS011;2388;53.582;9.962;2022-12-18T15:41:04;22.03;;;11.20;;
4748;SDS011;2388;53.582;9.962;2022-12-18T15:43:30;27.57;;;12.23;;
4748;SDS011;2388;53.582;9.962;2022-12-18T15:46:02;21.55;;;11.18;;
4748;SDS011;2388;53.582;9.962;2022-12-18T15:48:30;22.38;;;10.95;;
4748;SDS011;2388;53.582;9.962;2022-12-18T15:50:58;17.25;;;10.18;;
4748;SDS011;2388;53.582;9.962;2022-12-18T15:53:25;24.45;;;11.20;;
4748;SDS011;2388;53.582;9.962;2022-12-18T15:55:56;20.75;;;10.70;;
4748;SDS011;2388;53.582;9.962;2022-12-18T15:58:41;19.35;;;10.73;;
4748;SDS011;2388;53.582;9.962;2022-12-18T16:01:07;19.47;;;10.43;;
4748;SDS011;2388;53.582;9.962;2022-12-18T16:03:34;18.80;;;10.93;;
4748;SDS011;2388;53.582;9.962;2022-12-18T16:06:00;20.23;;;11.37;;
4748;SDS011;2388;53.582;9.962;2022-12-18T16:08:27;19.20;;;10.90;;
4748;SDS011;2388;53.582;9.962;2022-12-18T16:10:54;17.77;;;10.27;;
4748;SDS011;2388;53.582;9.962;2022-12-18T16:13:20;20.90;;;11.18;;
4748;SDS011;2388;53.582;9.962;2022-12-18T16:15:45;19.70;;;10.10;;
4748;SDS011;2388;53.582;9.962;2022-12-18T16:18:11;20.20;;;11.87;;
4748;SDS011;2388;53.582;9.962;2022-12-18T16:20:37;18.65;;;10.15;;
4748;SDS011;2388;53.582;9.962;2022-12-18T16:23:03;18.67;;;10.80;;
4748;SDS011;2388;53.582;9.962;2022-12-18T16:25:29;20.60;;;11.00;;
4748;SDS011;2388;53.582;9.962;2022-12-18T16:27:55;18.93;;;10.47;;
4748;SDS011;2388;53.582;9.962;2022-12-18T16:30:22;22.77;;;11.32;;
4748;SDS011;2388;53.582;9.962;2022-12-18T16:32:56;20.85;;;10.43;;
4748;SDS011;2388;53.582;9.962;2022-12-18T16:35:23;21.88;;;11.27;;
4748;SDS011;2388;53.582;9.962;2022-12-18T16:37:49;22.20;;;11.85;;
4748;SDS011;2388;53.582;9.962;2022-12-18T16:40:15;30.90;;;11.80;;
4748;SDS011;2388;53.582;9.962;2022-12-18T16:42:42;20.08;;;11.13;;
4748;SDS011;2388;53.582;9.962;2022-12-18T16:45:10;22.98;;;11.07;;
4748;SDS011;2388;53.582;9.962;2022-12-18T16:47:38;28.08;;;12.77;;
4748;SDS011;2388;53.582;9.962;2022-12-18T16:50:03;17.80;;;9.37;;
4748;SDS011;2388;53.582;9.962;2022-12-18T16:52:30;27.67;;;11.35;;
4748;SDS011;2388;53.582;9.962;2022-12-18T16:54:56;18.87;;;10.30;;
4748;SDS011;2388;53.582;9.962;2022-12-18T16:57:22;21.65;;;10.93;;
4748;SDS011;2388;53.582;9.962;2022-12-18T16:59:48;22.73;;;11.97;;
4748;SDS011;2388;53.582;9.962;2022-12-18T17:02:15;18.30;;;10.90;;
4748;SDS011;2388;53.582;9.962;2022-12-18T17:04:42;20.60;;;10.95;;